Time;durP1;ratioP1;P1;durP2;ratioP2;P2;SDS_P1;SDS_P2;PMS_P1;PMS_P2;Temp;Humidity;BMP_temperature;BMP_pressure;BME280_temperature;BME280_humidity;BME280_pressure;Samples;Min_cycle;Max_cycle;Signal;HPM_P1;HPM_P2
2021/05/18 00:02:14;;;;;;;0.50;0.43;;;8.80;99.90;;;;;;5073522;28;20456;-75
2021/05/18 00:04:40;;;;;;;0.70;0.50;;;8.80;99.90;;;;;;5074056;28;20485;-76
2021/05/18 00:07:11;;;;;;;1.30;0.43;;;8.80;99.90;;;;;;5073519;28;20483;-75
2021/05/18 00:12:21;;;;;;;0.53;0.40;;;8.80;99.90;;;;;;5072963;28;20478;-78
2021/05/18 00:14:48;;;;;;;0.50;0.50;;;8.80;99.90;;;;;;5073274;28;20441;-78
2021/05/18 00:17:15;;;;;;;2.10;0.60;;;8.80;99.90;;;;;;5073278;28;20456;-78
2021/05/18 00:19:41;;;;;;;0.40;0.40;;;8.90;99.90;;;;;;5073322;28;20464;-78
2021/05/18 00:22:07;;;;;;;0.50;0.50;;;8.90;99.90;;;;;;5073330;28;20449;-78
2021/05/18 00:24:34;;;;;;;0.40;0.40;;;8.90;99.90;;;;;;5073228;28;20489;-79
2021/05/18 00:27:03;;;;;;;0.70;0.70;;;8.90;99.90;;;;;;5073003;28;20939;-79
2021/05/18 00:29:29;;;;;;;0.87;0.60;;;8.90;99.90;;;;;;5073286;28;20461;-79
2021/05/18 00:31:56;;;;;;;2.20;0.53;;;8.90;99.90;;;;;;5073259;28;20463;-79
2021/05/18 00:34:23;;;;;;;0.50;0.50;;;8.90;99.90;;;;;;5073023;28;20801;-79
2021/05/18 00:36:50;;;;;;;0.60;0.50;;;8.90;99.90;;;;;;5072730;28;20967;-79
2021/05/18 00:39:18;;;;;;;1.50;0.60;;;8.90;99.90;;;;;;5072839;28;20518;-80
2021/05/18 00:41:45;;;;;;;0.43;0.40;;;8.90;99.90;;;;;;5073133;28;20445;-79
2021/05/18 00:44:11;;;;;;;1.13;0.60;;;8.90;99.90;;;;;;5073022;28;20481;-79
2021/05/18 00:46:38;;;;;;;1.17;0.50;;;8.90;99.90;;;;;;5073906;28;20484;-79
2021/05/18 00:49:04;;;;;;;0.40;0.40;;;8.80;99.90;;;;;;5073042;28;20495;-80
2021/05/18 00:51:31;;;;;;;0.60;0.60;;;8.90;99.90;;;;;;5073064;28;20453;-76
2021/05/18 00:54:00;;;;;;;0.40;0.40;;;8.90;99.90;;;;;;5072699;28;21001;-76
2021/05/18 00:58:26;;;;;;;2.60;0.60;;;8.80;99.90;;;;;;5072990;28;20452;-76
2021/05/18 00:59:20;;;;;;;0.60;0.40;;;8.80;99.90;;;;;;5072499;28;20896;-76
2021/05/18 01:01:46;;;;;;;0.60;0.60;;;8.80;99.90;;;;;;5072643;28;20539;-77
2021/05/18 01:04:16;;;;;;;1.43;0.40;;;8.80;99.90;;;;;;5072890;28;20222;-79
2021/05/18 01:06:43;;;;;;;1.00;0.50;;;8.80;99.90;;;;;;5072810;28;20448;-79
2021/05/18 01:09:11;;;;;;;1.37;0.60;;;8.80;99.90;;;;;;5072797;28;20500;-78
2021/05/18 01:11:39;;;;;;;0.53;0.50;;;8.80;99.90;;;;;;5072776;28;20531;-78
2021/05/18 01:14:10;;;;;;;0.60;0.50;;;8.80;99.90;;;;;;5072819;28;20436;-79
2021/05/18 01:16:40;;;;;;;0.80;0.50;;;8.80;99.90;;;;;;5072853;28;20437;-79
2021/05/18 01:19:06;;;;;;;1.73;0.43;;;8.80;99.90;;;;;;5072316;28;21034;-78
2021/05/18 01:21:34;;;;;;;1.07;0.60;;;8.80;99.90;;;;;;5072534;28;20801;-79
2021/05/18 01:24:00;;;;;;;6.63;0.60;;;8.80;99.90;;;;;;5074090;28;20483;-78
2021/05/18 01:26:29;;;;;;;1.40;0.50;;;8.90;99.90;;;;;;5076088;28;20940;-79
2021/05/18 01:28:56;;;;;;;0.43;0.43;;;8.90;99.90;;;;;;5076265;28;20468;-79
2021/05/18 01:31:24;;;;;;;0.60;0.50;;;9.00;99.90;;;;;;5076274;28;20452;-79
2021/05/18 01:33:51;;;;;;;0.50;0.50;;;9.00;99.90;;;;;;5076985;28;20796;-79
2021/05/18 01:36:20;;;;;;;0.50;0.50;;;9.00;99.90;;;;;;5076219;28;20448;-78
2021/05/18 01:38:54;;;;;;;0.57;0.50;;;9.00;99.90;;;;;;5075749;28;20480;-80
2021/05/18 01:44:06;;;;;;;0.90;0.47;;;9.00;99.90;;;;;;5076143;28;20534;-78
2021/05/18 01:46:32;;;;;;;1.17;0.50;;;9.00;99.90;;;;;;5076044;28;20452;-79
2021/05/18 01:49:02;;;;;;;1.10;0.50;;;9.00;99.90;;;;;;5075699;28;20449;-78
2021/05/18 01:51:29;;;;;;;0.60;0.60;;;9.00;99.90;;;;;;5075922;28;20490;-78
2021/05/18 01:53:59;;;;;;;0.50;0.50;;;9.00;99.90;;;;;;5075907;28;20443;-78
2021/05/18 01:56:40;;;;;;;1.17;0.50;;;8.90;99.90;;;;;;5075846;28;20428;-79
2021/05/18 01:59:09;;;;;;;1.33;0.60;;;8.90;99.90;;;;;;5075788;28;20456;-77
2021/05/18 02:01:35;;;;;;;1.37;0.60;;;8.90;99.90;;;;;;5075775;28;20453;-77
2021/05/18 02:04:02;;;;;;;0.90;0.60;;;8.90;99.90;;;;;;5075676;28;20489;-77
2021/05/18 02:06:29;;;;;;;1.23;0.50;;;8.90;99.90;;;;;;5075737;28;20444;-77
2021/05/18 02:08:56;;;;;;;0.90;0.57;;;8.80;99.90;;;;;;5075571;28;20469;-77
2021/05/18 02:11:23;;;;;;;0.80;0.50;;;8.80;99.90;;;;;;5075664;28;20444;-77
2021/05/18 02:13:51;;;;;;;0.50;0.50;;;8.80;99.90;;;;;;5075466;28;20453;-76
2021/05/18 02:16:23;;;;;;;1.23;0.50;;;8.80;99.90;;;;;;5075535;28;20460;-77
2021/05/18 02:19:12;;;;;;;1.40;0.53;;;8.80;99.90;;;;;;5075567;28;20559;-77
2021/05/18 02:21:53;;;;;;;0.50;0.50;;;8.80;99.90;;;;;;5075523;28;20440;-77
2021/05/18 02:27:18;;;;;;;0.50;0.50;;;8.80;99.90;;;;;;5013352;28;20443;-77
2021/05/18 02:29:45;;;;;;;0.93;0.50;;;8.80;99.90;;;;;;5013261;28;20468;-77
2021/05/18 02:32:11;;;;;;;0.63;0.50;;;8.80;99.90;;;;;;5040107;28;20511;-76
2021/05/18 02:34:37;;;;;;;1.37;0.60;;;8.80;99.90;;;;;;5074902;28;20578;-77
2021/05/18 02:37:04;;;;;;;0.50;0.50;;;8.80;99.90;;;;;;5074643;28;20479;-77
2021/05/18 02:39:30;;;;;;;0.63;0.63;;;8.80;99.90;;;;;;5074734;28;20523;-77
2021/05/18 02:41:57;;;;;;;0.60;0.60;;;8.80;99.90;;;;;;5074774;28;20447;-77
2021/05/18 02:44:28;;;;;;;0.57;0.50;;;8.80;99.90;;;;;;5074981;28;20488;-77
2021/05/18 02:49:39;;;;;;;1.77;0.80;;;8.80;99.90;;;;;;5074712;28;20449;-77
2021/05/18 02:52:05;;;;;;;1.43;0.60;;;8.80;99.90;;;;;;5074851;28;20455;-77
2021/05/18 02:54:31;;;;;;;1.17;0.50;;;8.80;99.90;;;;;;5074770;28;20487;-77
2021/05/18 02:57:00;;;;;;;0.83;0.50;;;8.80;99.90;;;;;;5074782;28;20448;-77
2021/05/18 02:59:27;;;;;;;0.50;0.40;;;8.80;99.90;;;;;;5074645;28;20559;-77
2021/05/18 03:01:57;;;;;;;1.43;0.73;;;8.80;99.90;;;;;;5074628;28;20445;-77
2021/05/18 03:04:24;;;;;;;0.60;0.60;;;8.90;99.90;;;;;;5074290;28;20992;-77
2021/05/18 03:06:50;;;;;;;0.60;0.50;;;8.90;99.90;;;;;;5074531;28;20452;-77
2021/05/18 03:09:17;;;;;;;0.50;0.50;;;8.80;99.90;;;;;;5074187;28;20987;-77
2021/05/18 03:11:45;;;;;;;0.40;0.40;;;8.80;99.90;;;;;;5074341;28;20448;-77
2021/05/18 03:14:13;;;;;;;0.50;0.50;;;8.80;99.90;;;;;;5074114;28;20963;-77
2021/05/18 03:16:41;;;;;;;0.70;0.50;;;8.70;99.90;;;;;;5074374;28;20502;-77
2021/05/18 03:19:10;;;;;;;0.50;0.50;;;8.70;99.90;;;;;;5074206;28;20561;-76
2021/05/18 03:21:36;;;;;;;0.43;0.43;;;8.70;99.90;;;;;;5074214;28;20460;-76
2021/05/18 03:24:04;;;;;;;0.83;0.50;;;8.70;99.90;;;;;;5073838;28;20472;-76
2021/05/18 03:26:30;;;;;;;0.73;0.50;;;8.70;99.90;;;;;;5074168;28;20441;-76
2021/05/18 03:28:59;;;;;;;0.50;0.47;;;8.70;99.90;;;;;;5074033;28;20465;-76
2021/05/18 03:34:31;;;;;;;0.50;0.50;;;8.60;99.90;;;;;;5074169;28;20439;-76
2021/05/18 03:37:00;;;;;;;0.40;0.40;;;8.60;99.90;;;;;;5073762;28;21512;-76
2021/05/18 03:39:26;;;;;;;0.50;0.40;;;8.60;99.90;;;;;;5073866;28;20484;-76
2021/05/18 03:41:58;;;;;;;0.50;0.50;;;8.60;99.90;;;;;;5073589;28;20448;-76
2021/05/18 03:44:31;;;;;;;1.33;0.40;;;8.50;99.90;;;;;;5073758;28;20469;-76
2021/05/18 03:52:27;;;;;;;1.37;0.40;;;8.50;99.90;;;;;;5074173;28;20539;-76
2021/05/18 03:58:33;;;;;;;0.63;0.40;;;8.50;99.90;;;;;;5073378;28;20955;-76
2021/05/18 04:03:27;;;;;;;1.87;0.40;;;8.40;99.90;;;;;;5073373;28;20511;-76
2021/05/18 04:11:52;;;;;;;0.70;0.50;;;8.50;99.90;;;;;;5016644;28;21001;-76
2021/05/18 04:17:03;;;;;;;0.60;0.40;;;8.50;99.90;;;;;;5073270;28;20770;-76
2021/05/18 04:19:33;;;;;;;0.47;0.40;;;8.60;99.90;;;;;;5073013;28;20465;-76
2021/05/18 04:22:31;;;;;;;0.60;0.50;;;8.70;99.90;;;;;;5073627;28;20433;-76
2021/05/18 04:39:00;;;;;;;0.50;0.50;;;8.90;99.90;;;;;;5091278;28;20859;-76
2021/05/18 04:41:50;;;;;;;0.77;0.50;;;8.90;99.90;;;;;;5093378;28;20431;-79
2021/05/18 04:52:50;;;;;;;0.40;0.40;;;8.90;99.90;;;;;;5093309;28;20424;-80
2021/05/18 05:00:49;;;;;;;0.60;0.50;;;8.90;99.90;;;;;;5097386;28;20403;-80
2021/05/18 05:06:22;;;;;;;1.63;0.50;;;9.10;99.90;;;;;;5034617;28;21028;-80
2021/05/18 05:08:53;;;;;;;3.37;1.37;;;9.10;99.90;;;;;;5085170;28;20467;-80
2021/05/18 05:16:49;;;;;;;0.40;0.40;;;9.20;99.90;;;;;;5096486;28;20439;-79
2021/05/18 05:19:16;;;;;;;0.67;0.50;;;9.20;99.90;;;;;;5097201;28;20809;-79
2021/05/18 05:21:42;;;;;;;1.23;0.60;;;9.20;99.90;;;;;;5096784;28;20467;-79
2021/05/18 05:24:10;;;;;;;0.80;0.50;;;9.20;99.90;;;;;;5096702;28;20869;-79
2021/05/18 05:26:38;;;;;;;3.57;0.70;;;9.10;99.90;;;;;;5097054;28;20444;-79
2021/05/18 05:29:05;;;;;;;1.43;0.77;;;9.10;99.90;;;;;;5096620;28;20558;-79
2021/05/18 05:31:33;;;;;;;0.90;0.70;;;9.10;99.90;;;;;;5096633;28;20444;-79
2021/05/18 05:33:59;;;;;;;0.70;0.70;;;9.10;99.90;;;;;;5096318;28;20435;-79
2021/05/18 05:36:25;;;;;;;1.00;0.63;;;9.10;99.90;;;;;;5096573;28;20440;-79
2021/05/18 05:38:52;;;;;;;0.80;0.80;;;9.10;99.90;;;;;;5095952;28;20480;-79
2021/05/18 05:41:18;;;;;;;1.63;0.90;;;9.00;99.90;;;;;;5096450;28;20444;-80
2021/05/18 05:43:45;;;;;;;1.87;0.70;;;9.10;99.90;;;;;;5096404;28;20475;-80
2021/05/18 05:46:12;;;;;;;2.40;0.70;;;9.10;99.90;;;;;;5096401;28;20451;-80
2021/05/18 05:48:38;;;;;;;1.07;0.80;;;9.00;99.90;;;;;;5096220;28;20472;-79
2021/05/18 05:51:04;;;;;;;0.63;0.60;;;9.00;99.90;;;;;;5096035;28;20517;-80
2021/05/18 05:53:31;;;;;;;0.70;0.70;;;9.10;99.90;;;;;;5096619;28;20440;-77
2021/05/18 05:55:58;;;;;;;1.77;0.80;;;9.10;99.90;;;;;;5096526;28;20444;-77
2021/05/18 05:58:24;;;;;;;0.70;0.70;;;9.10;99.90;;;;;;5096156;28;20439;-77
2021/05/18 06:00:51;;;;;;;0.90;0.67;;;9.20;99.90;;;;;;5096171;28;20496;-77
2021/05/18 06:03:17;;;;;;;0.77;0.60;;;9.20;99.90;;;;;;5095985;28;20448;-77
2021/05/18 06:05:43;;;;;;;0.73;0.73;;;9.20;99.90;;;;;;5095720;28;20973;-77
2021/05/18 06:08:10;;;;;;;0.60;0.60;;;9.10;99.90;;;;;;5095866;28;20452;-77
2021/05/18 06:10:38;;;;;;;0.87;0.67;;;9.20;99.90;;;;;;5094996;28;20483;-77
2021/05/18 06:13:19;;;;;;;0.70;0.70;;;9.20;99.90;;;;;;5095800;28;20447;-77
2021/05/18 06:35:36;;;;;;;0.70;0.70;;;11.30;99.90;;;;;;5095236;28;20435;-76
2021/05/18 06:45:41;;;;;;;2.20;1.00;;;11.70;99.90;;;;;;5032796;28;20469;-78
2021/05/18 06:46:50;;;;;;;2.63;0.87;;;11.70;99.90;;;;;;5089971;28;20448;-79
2021/05/18 06:49:16;;;;;;;1.80;0.50;;;11.90;99.90;;;;;;5095162;28;20864;-79
2021/05/18 06:51:43;;;;;;;1.40;0.63;;;11.80;99.90;;;;;;5095122;28;20440;-79
2021/05/18 06:54:10;;;;;;;0.60;0.60;;;11.90;99.90;;;;;;5094766;28;20946;-79
2021/05/18 06:56:37;;;;;;;1.13;0.70;;;11.80;99.90;;;;;;5095047;28;20444;-79
2021/05/18 07:01:48;;;;;;;0.50;0.50;;;13.10;99.90;;;;;;5094726;28;20400;-79
2021/05/18 07:04:16;;;;;;;0.70;0.50;;;14.40;99.90;;;;;;5094738;28;20492;-79
2021/05/18 07:06:48;;;;;;;0.50;0.50;;;15.20;99.90;;;;;;5094827;28;20445;-79
2021/05/18 07:09:14;;;;;;;0.50;0.40;;;15.20;99.90;;;;;;5094746;28;20472;-79
2021/05/18 07:11:41;;;;;;;0.90;0.50;;;14.70;99.90;;;;;;5094740;28;20447;-79
2021/05/18 07:14:07;;;;;;;0.50;0.50;;;14.20;99.90;;;;;;5095383;28;20765;-79
2021/05/18 07:16:35;;;;;;;0.83;0.40;;;13.80;99.90;;;;;;5094736;28;20428;-79
2021/05/18 07:19:01;;;;;;;0.60;0.40;;;13.70;99.90;;;;;;5094568;28;20463;-79
2021/05/18 07:21:28;;;;;;;1.10;0.50;;;13.50;99.90;;;;;;5094464;28;20432;-80
2021/05/18 07:23:56;;;;;;;0.80;0.80;;;13.30;99.90;;;;;;5094998;28;20468;-79
2021/05/18 07:26:22;;;;;;;0.50;0.50;;;13.00;99.90;;;;;;5094488;28;20486;-79
2021/05/18 07:28:48;;;;;;;0.50;0.50;;;12.70;99.90;;;;;;5094380;28;20475;-79
2021/05/18 07:31:14;;;;;;;1.37;0.50;;;12.50;99.90;;;;;;5094354;28;20444;-79
2021/05/18 07:33:41;;;;;;;0.70;0.40;;;12.40;99.90;;;;;;5094330;28;20444;-79
2021/05/18 07:36:09;;;;;;;2.03;0.70;;;12.20;99.90;;;;;;5094214;28;20452;-79
2021/05/18 07:38:37;;;;;;;0.60;0.60;;;12.10;99.90;;;;;;5093727;28;20490;-79
2021/05/18 07:41:05;;;;;;;0.83;0.70;;;12.00;99.90;;;;;;5093692;28;20939;-78
2021/05/18 07:43:31;;;;;;;0.70;0.50;;;12.10;99.90;;;;;;5094031;28;20814;-77
2021/05/18 07:45:59;;;;;;;1.23;0.50;;;12.10;99.90;;;;;;5094053;28;20448;-77
2021/05/18 07:48:31;;;;;;;0.73;0.60;;;12.10;99.90;;;;;;5093994;28;20882;-77
2021/05/18 07:51:06;;;;;;;0.70;0.60;;;12.00;99.90;;;;;;5094044;28;20455;-77
2021/05/18 07:59:16;;;;;;;0.50;0.50;;;11.60;99.90;;;;;;5045491;28;20589;-77
2021/05/18 08:07:11;;;;;;;0.80;0.60;;;11.30;99.90;;;;;;5093873;28;20415;-77
2021/05/18 08:09:42;;;;;;;1.90;0.60;;;11.30;99.90;;;;;;5093617;28;20467;-77
2021/05/18 08:12:10;;;;;;;0.60;0.50;;;11.30;99.90;;;;;;5093763;28;20424;-77
2021/05/18 08:14:39;;;;;;;0.70;0.70;;;11.40;99.90;;;;;;5093407;28;20432;-77
2021/05/18 08:17:17;;;;;;;1.10;0.60;;;11.50;99.90;;;;;;5093236;28;20954;-77
2021/05/18 08:23:18;;;;;;;0.60;0.60;;;11.90;99.90;;;;;;5093612;28;20401;-77
2021/05/18 10:34:41;;;;;;;1.23;0.50;;;19.50;98.00;;;;;;5151817;27;20176;-77
2021/05/18 10:37:22;;;;;;;0.90;0.50;;;19.70;93.40;;;;;;5151698;27;20460;-77
2021/05/18 10:40:27;;;;;;;1.17;0.40;;;19.40;90.40;;;;;;5151590;27;20552;-78
2021/05/18 10:43:18;;;;;;;0.60;0.50;;;18.70;93.30;;;;;;5151591;27;20417;-78
2021/05/18 10:46:08;;;;;;;0.40;0.40;;;19.20;94.70;;;;;;5151542;27;20486;-78
2021/05/18 10:49:05;;;;;;;0.70;0.40;;;19.80;90.50;;;;;;5151668;27;20472;-79
2021/05/18 10:51:39;;;;;;;1.07;0.43;;;20.50;89.60;;;;;;5087195;28;20484;-78
2021/05/18 10:54:31;;;;;;;2.20;0.53;;;20.80;88.20;;;;;;5140623;27;20457;-79
2021/05/18 10:57:20;;;;;;;1.03;0.40;;;20.40;79.80;;;;;;5148761;27;20513;-78
2021/05/18 10:59:58;;;;;;;0.93;0.60;;;19.60;87.00;;;;;;5151315;27;20477;-79
2021/05/18 11:02:29;;;;;;;0.60;0.40;;;19.10;88.20;;;;;;5147156;27;20906;-78
2021/05/18 11:04:58;;;;;;;0.80;0.50;;;18.50;83.00;;;;;;5137454;27;20438;-79
2021/05/18 11:07:33;;;;;;;0.50;0.50;;;18.00;87.10;;;;;;5137354;27;20427;-78
2021/05/18 11:10:01;;;;;;;0.60;0.50;;;17.40;91.60;;;;;;5137271;27;20513;-80
2021/05/18 11:12:27;;;;;;;0.50;0.40;;;16.80;92.20;;;;;;5136894;27;20474;-79
2021/05/18 11:15:07;;;;;;;0.67;0.50;;;16.30;94.40;;;;;;5136813;27;20931;-78
2021/05/18 11:17:35;;;;;;;0.93;0.50;;;15.90;98.00;;;;;;5136963;27;20426;-78
2021/05/18 11:20:07;;;;;;;0.60;0.50;;;15.50;98.40;;;;;;5137040;27;20466;-78
2021/05/18 11:25:46;;;;;;;0.60;0.40;;;14.90;99.90;;;;;;5137085;27;20751;-78
2021/05/18 11:28:15;;;;;;;0.53;0.40;;;14.60;95.80;;;;;;5136856;27;20434;-78
2021/05/18 11:30:44;;;;;;;2.57;0.40;;;14.40;95.50;;;;;;5136488;27;20433;-78
2021/05/18 11:33:10;;;;;;;1.50;0.30;;;14.40;95.50;;;;;;5136804;27;20529;-78
2021/05/18 11:35:37;;;;;;;0.40;0.30;;;14.20;95.00;;;;;;5136808;27;20787;-78
2021/05/18 11:38:06;;;;;;;0.40;0.37;;;14.00;93.40;;;;;;5136738;27;20434;-78
2021/05/18 11:40:44;;;;;;;2.60;0.40;;;13.80;93.40;;;;;;5136609;27;20466;-78
2021/05/18 11:43:16;;;;;;;0.40;0.40;;;13.80;95.30;;;;;;5136641;27;20434;-79
2021/05/18 11:45:44;;;;;;;0.50;0.40;;;13.80;96.70;;;;;;5136542;27;20442;-79
2021/05/18 11:48:15;;;;;;;0.80;0.80;;;13.90;98.60;;;;;;5136169;27;20430;-78
2021/05/18 11:50:42;;;;;;;1.27;0.40;;;14.10;97.00;;;;;;5136152;27;20466;-79
2021/05/18 11:53:08;;;;;;;1.80;1.30;;;14.40;99.30;;;;;;5136449;27;20433;-79
2021/05/18 11:55:35;;;;;;;1.27;0.40;;;14.60;98.60;;;;;;5136380;27;20434;-79
2021/05/18 11:58:02;;;;;;;1.07;0.30;;;14.70;97.50;;;;;;5136008;27;20438;-78
2021/05/18 12:00:31;;;;;;;0.60;0.47;;;14.60;95.20;;;;;;5135907;27;20985;-79
2021/05/18 12:03:08;;;;;;;0.70;0.40;;;14.90;95.10;;;;;;5136239;27;20533;-78
2021/05/18 12:05:48;;;;;;;0.50;0.50;;;15.10;94.80;;;;;;5136212;27;20483;-78
2021/05/18 12:08:27;;;;;;;1.00;0.50;;;15.20;94.30;;;;;;5135751;27;20901;-79
2021/05/18 12:10:53;;;;;;;0.80;0.40;;;15.40;94.00;;;;;;5136029;27;20470;-79
2021/05/18 12:13:30;;;;;;;2.10;0.40;;;15.40;93.10;;;;;;5136031;27;20453;-79
2021/05/18 12:16:00;;;;;;;1.20;0.40;;;15.40;93.90;;;;;;5134723;27;20452;-79
2021/05/18 12:18:30;;;;;;;0.50;0.50;;;15.50;94.00;;;;;;5154916;27;20429;-78
2021/05/18 12:21:04;;;;;;;1.10;0.50;;;15.50;92.70;;;;;;5155197;27;20430;-78
2021/05/18 12:23:30;;;;;;;0.53;0.43;;;15.40;92.40;;;;;;5155916;27;20793;-78
2021/05/18 12:26:09;;;;;;;0.70;0.50;;;15.20;93.60;;;;;;5156587;27;20450;-78
2021/05/18 12:28:36;;;;;;;1.17;0.50;;;15.20;93.70;;;;;;5156447;27;20472;-80
2021/05/18 12:31:02;;;;;;;0.97;0.57;;;15.30;94.70;;;;;;5156046;27;20989;-79
2021/05/18 12:33:37;;;;;;;0.80;0.50;;;15.30;94.00;;;;;;5156100;27;20905;-79
2021/05/18 12:36:04;;;;;;;1.53;0.40;;;15.40;93.90;;;;;;5156332;27;20424;-78
2021/05/18 12:38:31;;;;;;;0.70;0.50;;;15.40;94.60;;;;;;5155876;27;20830;-78
2021/05/18 12:41:03;;;;;;;1.00;0.50;;;15.50;95.30;;;;;;5155886;27;20781;-79
2021/05/18 12:43:38;;;;;;;0.40;0.40;;;15.60;96.50;;;;;;5156163;27;20449;-78
2021/05/18 12:46:09;;;;;;;0.80;0.40;;;15.80;95.10;;;;;;5156401;27;20413;-79
2021/05/18 12:48:37;;;;;;;0.90;0.40;;;15.80;94.80;;;;;;5156016;27;20465;-79
2021/05/18 12:51:15;;;;;;;2.10;0.40;;;16.00;96.00;;;;;;5155613;27;20488;-79
2021/05/18 12:53:42;;;;;;;1.70;0.50;;;15.90;95.80;;;;;;5155674;27;20921;-80
2021/05/18 12:56:12;;;;;;;0.90;0.50;;;15.90;94.50;;;;;;5155903;27;20441;-76
2021/05/18 12:58:38;;;;;;;1.63;0.80;;;15.70;95.90;;;;;;5155808;27;20613;-76
2021/05/18 13:01:09;;;;;;;0.70;0.60;;;15.60;94.70;;;;;;5155525;27;20469;-76
2021/05/18 13:03:38;;;;;;;0.60;0.47;;;15.40;95.00;;;;;;5155927;27;20804;-76
2021/05/18 13:06:05;;;;;;;0.60;0.50;;;15.20;95.60;;;;;;5156628;27;20571;-76
2021/05/18 13:08:35;;;;;;;1.97;1.13;;;14.80;96.80;;;;;;5155637;27;20457;-75
2021/05/18 13:11:12;;;;;;;0.63;0.50;;;14.60;97.50;;;;;;5155300;27;20963;-76
2021/05/18 13:13:46;;;;;;;0.97;0.40;;;14.50;97.40;;;;;;5155399;27;20425;-76
2021/05/18 13:16:15;;;;;;;0.60;0.40;;;14.40;97.10;;;;;;5155296;27;20762;-75
2021/05/18 13:18:53;;;;;;;1.17;0.40;;;14.30;97.20;;;;;;5155480;27;20496;-75
2021/05/18 13:21:23;;;;;;;0.40;0.40;;;14.30;97.90;;;;;;5155539;27;20433;-75
2021/05/18 13:24:26;;;;;;;1.37;0.40;;;14.40;98.90;;;;;;5155518;27;20430;-75
2021/05/18 13:26:47;;;;;;;0.60;0.50;;;14.50;97.60;;;;;;5154725;27;20457;-75
2021/05/18 13:29:16;;;;;;;0.40;0.40;;;14.60;98.40;;;;;;5155366;27;20921;-75
2021/05/18 13:31:43;;;;;;;0.70;0.47;;;14.80;98.00;;;;;;5155343;27;20235;-75
2021/05/18 13:34:11;;;;;;;1.07;0.50;;;14.90;98.50;;;;;;5155038;27;20927;-75
2021/05/18 13:36:38;;;;;;;1.27;0.40;;;15.00;98.70;;;;;;5155330;27;20490;-75
2021/05/18 13:39:06;;;;;;;0.50;0.40;;;15.00;98.20;;;;;;5154853;27;21003;-75
2021/05/18 13:44:04;;;;;;;0.40;0.40;;;14.90;97.30;;;;;;5173335;22;20506;-77
2021/05/18 13:46:31;;;;;;;0.30;0.30;;;14.90;95.40;;;;;;5033446;28;20838;-77
2021/05/18 13:48:57;;;;;;;0.80;0.40;;;14.90;94.60;;;;;;5033003;28;20467;-76
2021/05/18 13:51:24;;;;;;;0.60;0.30;;;14.90;93.10;;;;;;5033332;28;20474;-76
2021/05/18 13:53:51;;;;;;;0.40;0.30;;;14.80;92.90;;;;;;5033696;28;20434;-77
2021/05/18 13:56:20;;;;;;;0.40;0.40;;;14.70;93.90;;;;;;5033080;28;20438;-76
2021/05/18 13:58:46;;;;;;;0.40;0.30;;;14.60;94.30;;;;;;5032954;28;20466;-76
2021/05/18 14:01:13;;;;;;;0.47;0.33;;;14.40;95.30;;;;;;5032984;28;20906;-76
2021/05/18 14:03:40;;;;;;;0.40;0.40;;;14.20;97.20;;;;;;5033278;28;20441;-76
2021/05/18 14:06:06;;;;;;;0.50;0.40;;;14.00;99.70;;;;;;5033235;28;20480;-76
2021/05/18 14:08:34;;;;;;;1.87;0.40;;;14.00;99.10;;;;;;5033126;28;20501;-76
2021/05/18 14:11:04;;;;;;;0.50;0.47;;;13.90;99.60;;;;;;5032824;28;20529;-77
2021/05/18 14:13:33;;;;;;;1.07;0.30;;;13.70;99.90;;;;;;5033180;28;20510;-76
2021/05/18 14:16:00;;;;;;;0.60;0.40;;;13.50;99.90;;;;;;5033187;28;20474;-76
2021/05/18 14:18:27;;;;;;;0.50;0.40;;;13.50;99.90;;;;;;5033869;28;20422;-79
2021/05/18 14:20:53;;;;;;;0.40;0.40;;;13.50;99.90;;;;;;5033125;28;20435;-78
2021/05/18 14:23:22;;;;;;;1.00;0.40;;;13.60;99.90;;;;;;5033169;28;20434;-78
2021/05/18 14:25:50;;;;;;;1.13;0.40;;;13.60;99.90;;;;;;5033086;28;20431;-79
2021/05/18 14:28:16;;;;;;;1.50;0.63;;;13.70;99.90;;;;;;5032990;28;20435;-79
2021/05/18 14:30:42;;;;;;;0.77;0.40;;;13.60;99.90;;;;;;5032729;28;20438;-79
2021/05/18 14:33:09;;;;;;;0.50;0.40;;;13.80;99.90;;;;;;5032651;28;21030;-78
2021/05/18 14:35:35;;;;;;;1.00;0.63;;;13.70;99.90;;;;;;5032994;28;20465;-79
2021/05/18 14:38:07;;;;;;;0.40;0.37;;;13.80;99.90;;;;;;5034215;28;20414;-79
2021/05/18 14:40:55;;;;;;;0.43;0.40;;;13.90;99.90;;;;;;5037739;28;20485;-79
2021/05/18 14:46:14;;;;;;;1.00;0.53;;;13.90;99.90;;;;;;5036662;28;20906;-79
2021/05/18 14:54:45;;;;;;;0.47;0.40;;;14.30;99.10;;;;;;5033769;28;20515;-79
2021/05/18 14:57:12;;;;;;;0.40;0.40;;;14.30;98.80;;;;;;5036147;28;20423;-79
2021/05/18 14:59:39;;;;;;;0.80;0.47;;;14.30;98.40;;;;;;5036317;28;20474;-79
2021/05/18 15:02:05;;;;;;;1.90;0.50;;;14.20;99.50;;;;;;5036316;28;20427;-79
2021/05/18 15:04:32;;;;;;;0.40;0.40;;;14.20;99.90;;;;;;5036233;28;20431;-79
2021/05/18 15:06:58;;;;;;;0.30;0.30;;;14.30;98.80;;;;;;5036244;28;20446;-79
2021/05/18 15:09:25;;;;;;;0.40;0.30;;;14.30;98.40;;;;;;5036104;28;20467;-79
2021/05/18 15:11:51;;;;;;;2.53;0.40;;;14.20;99.90;;;;;;5036656;28;20474;-79
2021/05/18 15:14:18;;;;;;;0.70;0.40;;;14.20;99.90;;;;;;5036132;28;20435;-79
2021/05/18 15:16:45;;;;;;;0.40;0.40;;;14.20;99.40;;;;;;5036049;28;20443;-79
2021/05/18 15:19:13;;;;;;;0.90;0.40;;;14.20;98.90;;;;;;5035832;28;20846;-79
2021/05/18 15:21:40;;;;;;;1.43;0.50;;;14.10;99.60;;;;;;5036753;28;20431;-79
2021/05/18 15:24:07;;;;;;;0.47;0.47;;;14.00;98.00;;;;;;5035904;28;20481;-79
2021/05/18 15:26:34;;;;;;;0.60;0.60;;;13.90;99.30;;;;;;5035752;28;20435;-79
2021/05/18 15:29:00;;;;;;;0.50;0.50;;;13.80;98.50;;;;;;5035362;28;21035;-79
2021/05/18 15:31:28;;;;;;;0.63;0.50;;;13.70;99.20;;;;;;5035535;28;20520;-79
2021/05/18 15:33:55;;;;;;;1.40;0.50;;;13.70;99.90;;;;;;5035769;28;20437;-79
2021/05/18 15:36:22;;;;;;;1.10;0.50;;;13.60;99.90;;;;;;5035450;28;20785;-79
2021/05/18 15:38:48;;;;;;;1.50;0.50;;;13.50;99.90;;;;;;5035570;28;20524;-79
2021/05/18 15:41:15;;;;;;;0.60;0.50;;;13.50;99.90;;;;;;5035602;28;20438;-79
2021/05/18 15:43:41;;;;;;;2.80;0.67;;;13.40;99.90;;;;;;5035019;28;20981;-79
2021/05/18 15:46:08;;;;;;;0.50;0.40;;;13.40;99.90;;;;;;5035469;28;20439;-79
2021/05/18 15:48:34;;;;;;;1.73;0.57;;;13.40;99.90;;;;;;5035248;28;20477;-79
2021/05/18 15:51:02;;;;;;;2.70;0.60;;;13.40;99.90;;;;;;5035360;28;20815;-79
2021/05/18 15:53:29;;;;;;;0.67;0.53;;;13.40;99.90;;;;;;5035344;28;20419;-79
2021/05/18 15:55:57;;;;;;;1.80;0.60;;;13.40;99.90;;;;;;5035052;28;20906;-79
2021/05/18 15:58:23;;;;;;;0.87;0.50;;;13.40;99.90;;;;;;5035217;28;20439;-79
2021/05/18 16:00:51;;;;;;;0.60;0.50;;;13.40;99.90;;;;;;5035230;28;20434;-78
2021/05/18 16:03:18;;;;;;;1.70;0.50;;;13.30;99.90;;;;;;5035217;28;20435;-78
2021/05/18 16:05:44;;;;;;;1.63;0.50;;;13.30;99.90;;;;;;5035106;28;20492;-79
2021/05/18 16:10:53;;;;;;;1.33;0.40;;;13.20;99.90;;;;;;5034533;28;20851;-78
2021/05/18 16:13:19;;;;;;;1.13;0.50;;;13.20;99.90;;;;;;5034924;28;20533;-79
2021/05/18 16:15:45;;;;;;;1.17;0.60;;;13.20;99.90;;;;;;5034956;28;20431;-79
2021/05/18 16:18:12;;;;;;;1.47;0.50;;;13.20;99.90;;;;;;5034860;28;20411;-79
2021/05/18 16:20:38;;;;;;;0.67;0.60;;;13.30;99.90;;;;;;5034894;28;20493;-78
2021/05/18 16:23:05;;;;;;;1.67;0.73;;;13.30;99.90;;;;;;5034850;28;20438;-79
2021/05/18 16:25:32;;;;;;;1.20;0.60;;;13.30;99.90;;;;;;5034744;28;20443;-79
2021/05/18 16:27:59;;;;;;;0.57;0.57;;;13.40;99.90;;;;;;5034728;28;20438;-79
2021/05/18 16:30:25;;;;;;;0.40;0.40;;;13.40;99.90;;;;;;5034488;28;20482;-79
2021/05/18 16:32:51;;;;;;;0.70;0.57;;;13.40;99.90;;;;;;5034237;28;20470;-79
2021/05/18 16:35:17;;;;;;;0.70;0.50;;;13.30;99.90;;;;;;5034574;28;20501;-79
2021/05/18 16:37:44;;;;;;;0.40;0.40;;;13.30;99.90;;;;;;5034214;28;20827;-79
2021/05/18 16:40:11;;;;;;;0.70;0.47;;;13.30;99.90;;;;;;5034089;28;20996;-79
2021/05/18 16:42:39;;;;;;;0.60;0.40;;;13.30;99.90;;;;;;5034086;28;20489;-79
2021/05/18 16:45:08;;;;;;;1.33;0.63;;;13.30;99.90;;;;;;5034048;28;20934;-79
2021/05/18 16:47:35;;;;;;;3.37;1.57;;;13.40;99.90;;;;;;5034290;28;20441;-79
2021/05/18 16:50:01;;;;;;;0.87;0.50;;;13.30;99.90;;;;;;5034097;28;20482;-79
2021/05/18 16:52:27;;;;;;;0.50;0.50;;;13.30;99.90;;;;;;5034187;28;20504;-79
2021/05/18 16:54:54;;;;;;;0.70;0.50;;;13.20;99.90;;;;;;5034165;28;20439;-79
2021/05/18 16:57:20;;;;;;;0.40;0.33;;;13.20;99.90;;;;;;5033861;28;20984;-79
2021/05/18 16:59:47;;;;;;;0.50;0.50;;;13.10;99.90;;;;;;5034027;28;20479;-79
2021/05/18 17:02:13;;;;;;;0.60;0.43;;;13.00;99.90;;;;;;5033552;28;20501;-79
2021/05/18 17:04:39;;;;;;;1.47;0.40;;;13.00;99.90;;;;;;5034019;28;20439;-79
2021/05/18 17:07:06;;;;;;;0.50;0.50;;;12.90;99.90;;;;;;5034409;28;20841;-79
2021/05/18 17:09:32;;;;;;;0.57;0.40;;;12.90;99.90;;;;;;5033850;28;20803;-79
2021/05/18 17:12:01;;;;;;;1.23;0.40;;;12.80;99.90;;;;;;5033798;28;20481;-79
2021/05/18 17:14:27;;;;;;;0.40;0.30;;;12.70;99.90;;;;;;5033561;28;20533;-79
2021/05/18 17:16:55;;;;;;;0.40;0.40;;;12.70;99.90;;;;;;5034088;28;20439;-79
2021/05/18 17:19:22;;;;;;;1.03;0.50;;;12.80;99.90;;;;;;5033653;28;20463;-79
2021/05/18 17:21:49;;;;;;;0.40;0.30;;;12.80;99.90;;;;;;5033780;28;20841;-78